Estació municipal de Aiguafreda (Osona, P.N. del Montseny)

Consulta les dades en temps real de l'estació municipal de Aiguafreda





Hora UTC 12:25
Temperatura 36.8 ºC
Sòl 15 cm 40.0 ºC
Humitat 27.4 %
Pressió 1020.8 hPa
Pluja 0.0 mm
Velocitat vent 11.2 km/h
Direcció vent SSE

Dades diàries 2026-09-06



Hora UTC (hivern +1h; estiu +2h)
Temperatura (ºC) Humitat (%) Pressió (hPa) Velocitat vent (km/h) Precipitació (mm)
Hora UTC Aire Sòl 15 cm Humitat Pressió Vel. Dir. Vel. Max Dir. Intent. màx 5 min.
00:05 20.6 19.2 64.5 1022.3 0.0 NNE 0.0 NNE 0.0
00:10 20.6 19.1 64.9 1022.3 0.0 NNE 0.0 NNE 0.0
00:15 20.5 19.0 64.9 1022.3 0.0 NNE 0.0 NNE 0.0
00:20 20.4 19.0 65.2 1022.2 0.0 NNE 0.0 NNE 0.0
00:25 20.4 18.9 65.0 1022.2 0.0 NNE 0.0 NNW 0.0
00:30 20.4 18.9 64.9 1022.2 0.0 NNE 0.0 WSW 0.0
00:35 20.3 18.8 65.2 1022.2 0.0 NNE 0.0 WSW 0.0
00:40 20.2 18.8 65.3 1022.1 0.0 NNE 0.0 NE 0.0
00:45 20.2 18.7 65.4 1022.1 0.0 NNE 0.0 NE 0.0
00:50 20.2 18.7 64.9 1022.1 0.0 NNE 0.0 SE 0.0
00:55 20.2 18.7 64.7 1022.1 0.0 NNE 0.0 SSW 0.0
01:00 20.1 18.6 64.5 1022.1 0.0 NNE 0.0 SSW 0.0
01:05 20.1 18.5 64.6 1022.1 0.0 NNE 0.0 SSW 0.0
01:10 20.0 18.4 63.9 1022.1 0.0 NNE 0.0 SSW 0.0
01:15 19.9 18.4 64.4 1022.0 0.0 NNE 0.0 SSW 0.0
01:20 19.9 18.3 64.0 1022.0 0.0 NNE 0.0 SSE 0.0
01:25 19.8 18.2 63.8 1022.0 0.0 NNE 0.0 SSE 0.0
01:30 19.7 18.2 63.9 1022.0 0.0 NNE 0.0 SE 0.0
01:35 19.7 18.1 64.4 1021.9 0.0 NNE 0.0 N 0.0
01:40 19.6 18.1 64.6 1021.9 0.0 NNE 0.0 N 0.0
01:45 19.6 18.1 64.7 1021.9 0.0 NNE 0.0 N 0.0
01:50 19.6 18.1 64.8 1021.9 0.0 NNE 0.0 ESE 0.0
01:55 19.6 18.0 65.1 1021.9 0.0 NNE 0.0 NNW 0.0
02:00 19.6 18.0 65.2 1021.9 0.0 NNE 0.0 NNW 0.0
02:05 19.6 18.0 65.4 1021.9 0.0 NNE 0.0 NNW 0.0
02:10 19.6 18.0 65.5 1021.9 0.0 NNE 0.0 NNW 0.0
02:15 19.6 18.0 65.7 1021.9 0.0 NNE 0.0 NNW 0.0
02:20 19.6 18.0 65.8 1021.9 0.0 NNE 0.0 NNW 0.0
02:25 19.6 17.9 66.1 1021.9 0.0 NNE 0.0 NNW 0.0
02:30 19.6 17.9 66.2 1021.9 0.0 NNE 0.0 NNW 0.0
02:35 19.5 18.0 66.1 1021.8 0.0 NNE 0.0 NNW 0.0
02:40 19.5 18.0 66.3 1021.8 0.0 NNE 0.0 SW 0.0
02:45 19.5 18.1 65.7 1021.8 0.0 NNE 0.0 S 0.0
02:50 19.6 18.1 65.4 1021.8 0.0 NNE 0.0 SE 0.0
02:55 19.6 18.0 65.4 1021.8 0.0 NNE 0.0 S 0.0
03:00 19.5 17.9 65.4 1021.8 0.0 NNE 0.0 S 0.0
03:05 19.4 17.9 65.9 1021.8 0.0 NNE 0.0 S 0.0
03:10 19.5 17.9 66.4 1021.8 0.0 NNE 0.0 S 0.0
03:15 19.6 18.1 66.5 1021.7 0.0 NNE 0.0 SE 0.0
03:20 19.8 18.1 66.2 1021.7 0.0 NNE 0.0 S 0.0
03:25 19.8 18.2 65.3 1021.7 0.0 NNE 0.0 WSW 0.0
03:30 19.8 18.3 64.8 1021.7 0.1 S 3.4 S 0.0
03:35 19.7 18.1 65.0 1021.6 0.0 NNE 0.0 S 0.0
03:40 19.6 18.0 65.5 1021.6 0.0 NNE 0.0 S 0.0
03:45 19.6 17.9 66.0 1021.6 0.0 NNE 0.0 WSW 0.0
03:50 19.7 18.0 65.8 1021.5 0.0 NNE 0.0 WNW 0.0
03:55 19.8 18.2 66.5 1021.5 0.2 NE 6.1 NE 0.0
04:00 19.8 18.1 67.3 1021.5 0.0 NNE 0.0 SE 0.0
04:05 19.9 18.2 67.8 1021.5 0.0 NNE 0.0 ESE 0.0
04:10 19.9 18.2 68.2 1021.5 0.0 NNE 0.0 NE 0.0
04:15 20.0 18.3 68.4 1021.5 0.0 NNE 0.0 E 0.0
04:20 20.1 18.3 68.5 1021.5 0.0 NNE 0.0 ESE 0.0
04:25 20.1 18.3 68.3 1021.5 0.3 NE 6.1 NE 0.0
04:30 20.2 18.5 67.8 1021.5 0.0 NE 3.4 NE 0.0
04:35 20.1 18.4 66.5 1021.5 0.1 S 3.4 S 0.0
04:40 20.0 18.3 65.9 1021.5 0.0 NNE 0.0 S 0.0
04:45 19.8 18.1 66.3 1021.5 0.4 SSE 3.4 S 0.0
04:50 19.7 18.0 66.6 1021.4 0.0 NNE 0.0 S 0.0
04:55 19.6 17.9 66.4 1021.4 0.0 NNE 0.0 S 0.0
05:00 19.5 17.9 66.4 1021.4 0.0 NNE 0.0 SSE 0.0
05:05 19.4 17.9 66.9 1021.4 0.0 NNE 0.0 SSE 0.0
05:10 19.4 18.0 67.1 1021.5 1.0 SE 6.1 E 0.0
05:15 19.4 18.0 67.2 1021.5 0.0 NNE 0.0 SSW 0.0
05:20 19.4 17.9 67.0 1021.5 0.0 NNE 0.0 SE 0.0
05:25 19.4 17.9 67.3 1021.5 0.0 NNE 0.0 SE 0.0
05:30 19.3 17.9 66.4 1021.5 0.0 NNE 0.0 S 0.0
05:35 19.3 17.9 65.9 1021.5 0.0 NNE 0.0 SSE 0.0
05:40 19.2 17.9 66.0 1021.6 0.0 NNE 0.0 SSW 0.0
05:45 19.2 17.9 66.5 1021.6 0.0 NNE 0.0 S 0.0
05:50 19.2 17.9 67.1 1021.6 0.0 NNE 0.0 SW 0.0
05:55 19.2 18.0 67.3 1021.6 0.0 NNE 0.0 S 0.0
06:00 19.3 18.1 67.2 1021.6 0.0 NNE 0.0 SE 0.0
06:05 19.3 18.1 67.1 1021.6 0.0 NNE 0.0 S 0.0
06:10 19.4 18.3 67.2 1021.7 0.0 NNE 0.0 SW 0.0
06:15 19.5 18.5 66.9 1021.7 0.0 NNE 0.0 SE 0.0
06:20 19.6 18.6 66.6 1021.8 0.0 NNE 0.0 SE 0.0
06:25 19.7 18.8 67.0 1021.9 0.0 NNE 0.0 SSW 0.0
06:30 20.0 19.0 67.6 1021.9 0.3 SSE 6.1 S 0.0
06:35 20.4 19.5 67.3 1021.9 0.9 SSE 6.1 SSE 0.0
06:40 20.8 19.9 66.8 1021.9 0.0 NNE 0.0 SSW 0.0
06:45 21.2 20.2 67.0 1021.9 0.0 NNE 0.0 ENE 0.0
06:50 21.6 20.7 65.6 1022.0 3.3 ENE 11.5 ENE 0.0
06:55 21.9 21.1 64.2 1021.9 5.1 ENE 14.2 ENE 0.0
07:00 22.2 21.4 63.2 1022.0 1.4 ENE 8.8 NE 0.0
07:05 22.4 21.6 62.4 1022.0 0.0 NNE 0.0 NE 0.0
07:10 22.6 21.8 61.5 1022.0 4.0 NNE 14.2 NNE 0.0
07:15 22.9 22.1 60.9 1022.0 0.0 NNE 0.0 NE 0.0
07:20 23.2 22.4 60.0 1022.0 0.6 ENE 6.1 NE 0.0
07:25 23.6 22.8 58.8 1022.0 2.7 NNE 8.8 NE 0.0
07:30 24.0 23.1 57.9 1021.9 3.2 ENE 8.8 NE 0.0
07:35 24.4 23.6 56.6 1021.9 3.6 NE 11.5 NE 0.0
07:40 25.0 24.0 54.8 1021.8 2.2 NE 8.8 NE 0.0
07:45 25.9 24.5 52.4 1021.8 0.0 NNE 0.0 NNE 0.0
07:50 26.4 24.7 51.2 1021.8 0.0 NNE 0.0 E 0.0
07:55 26.9 25.1 49.6 1021.8 0.0 NNE 0.0 NE 0.0
08:00 27.4 25.5 48.5 1021.7 0.0 NNE 0.0 NE 0.0
08:05 27.7 26.0 47.6 1021.7 0.0 NNE 0.0 NE 0.0
08:10 27.9 26.6 47.1 1021.7 1.0 NE 8.8 NE 0.0
08:15 28.0 27.6 46.6 1021.7 2.5 NNE 8.8 NE 0.0
08:20 28.5 29.0 45.8 1021.7 2.6 NNE 8.8 N 0.0
08:25 28.9 30.0 44.4 1021.7 3.3 NNE 8.8 NNE 0.0
08:30 29.4 31.1 43.7 1021.8 1.1 NNE 6.1 N 0.0
08:35 29.6 31.6 42.8 1021.8 3.1 N 8.8 N 0.0
08:40 30.3 32.7 41.5 1021.8 0.0 NNE 0.0 NNE 0.0
08:45 30.8 33.0 40.1 1021.8 1.1 SSW 6.1 SSW 0.0
08:50 30.9 33.8 39.4 1021.8 1.3 WSW 6.1 SW 0.0
08:55 31.3 35.1 38.3 1021.8 0.0 NNE 0.0 WSW 0.0
09:00 31.5 36.5 37.1 1021.8 0.0 NNE 0.0 NW 0.0
09:05 32.2 37.1 35.9 1021.7 0.4 SE 6.1 SE 0.0
09:10 32.9 37.8 35.0 1021.8 1.3 SSW 8.8 WSW 0.0
09:15 33.1 36.7 33.5 1021.8 7.5 SSE 14.2 SSE 0.0
09:20 33.2 36.8 32.7 1021.7 7.6 S 14.2 SSE 0.0
09:25 33.3 37.0 32.0 1021.7 8.1 SSE 16.9 SSE 0.0
09:30 33.4 36.9 32.3 1021.8 7.9 SSE 14.2 SE 0.0
09:35 33.6 36.9 32.0 1021.7 10.5 SSE 19.6 SSE 0.0
09:40 33.5 36.6 32.5 1021.7 9.4 S 22.3 SSW 0.0
09:45 33.4 36.8 32.7 1021.6 9.2 S 16.9 SSE 0.0
09:50 33.9 37.9 31.9 1021.7 8.5 SE 19.6 SSE 0.0
09:55 34.0 37.5 31.8 1021.5 9.4 SSE 16.9 ESE 0.0
10:00 33.8 37.3 31.8 1021.7 11.3 SSE 19.6 SSE 0.0
10:05 33.6 37.0 31.9 1021.7 12.8 SSE 22.3 SSE 0.0
10:10 33.7 37.2 31.8 1021.7 9.6 SSE 16.9 S 0.0
10:15 34.1 37.5 31.4 1021.5 11.5 SSE 25.0 S 0.0
10:20 34.1 37.8 31.2 1021.6 11.5 SSE 19.6 SE 0.0
10:25 34.1 37.6 30.9 1021.5 13.9 SSE 25.0 SSE 0.0
10:30 34.2 37.8 31.0 1021.5 12.6 SSE 22.3 SSE 0.0
10:35 34.3 38.2 30.6 1021.5 11.8 SSE 22.3 SSE 0.0
10:40 34.7 38.4 30.1 1021.4 10.8 SSE 19.6 SSE 0.0
10:45 35.2 38.8 29.1 1021.3 10.8 SSE 19.6 SSE 0.0
10:50 35.0 38.7 28.9 1021.3 11.6 SSE 22.3 S 0.0
10:55 35.2 38.7 28.5 1021.3 11.3 SSE 19.6 SSE 0.0
11:00 35.0 38.2 28.7 1021.3 12.0 SSE 25.0 S 0.0
11:05 35.6 39.3 28.0 1021.3 11.9 SSE 22.3 SSW 0.0
11:10 35.4 38.7 28.3 1021.4 12.7 SSE 25.0 SSE 0.0
11:15 35.5 39.1 28.2 1021.2 13.7 SSE 25.0 SSE 0.0
11:20 35.6 39.3 28.0 1021.1 11.8 SSE 19.6 SSE 0.0
11:25 35.8 39.3 27.9 1021.1 13.2 SSE 22.3 SSE 0.0
11:30 35.9 39.6 28.1 1021.1 10.6 SSE 22.3 SSE 0.0
11:35 36.2 39.5 27.5 1021.0 12.9 SSE 25.0 SSE 0.0
11:40 35.7 39.1 27.8 1021.0 13.0 SSE 22.3 SSE 0.0
11:45 36.1 39.9 27.8 1021.1 9.6 SSE 19.6 SSE 0.0
11:50 36.7 40.7 27.1 1021.0 7.5 SSE 19.6 S 0.0
11:55 36.9 40.8 26.6 1021.0 10.9 SSE 19.6 SE 0.0
12:00 37.1 40.9 26.9 1021.0 8.2 SSE 22.3 SSE 0.0
12:05 36.8 40.0 27.0 1020.9 14.1 SE 27.7 SSE 0.0
12:10 36.5 40.1 27.5 1021.0 11.7 S 22.3 SSE 0.0
12:15 36.6 40.1 27.5 1020.8 10.5 SSE 22.3 SE 0.0
12:20 36.9 40.6 27.1 1020.9 10.7 SE 22.3 SSE 0.0
12:25 36.8 40.0 27.4 1020.8 11.2 SSE 22.3 SSE 0.0
Màxima 37.1 40.9 68.5 1022.3 14.1 SE 27.7 SSE 0.0
Mínima 19.2 17.9 26.6 1020.8
Total 0.0